Sioux Falls, SD

11:29 PM CDT on September 14, 2014 (GMT -0500)
Foss | Change Station
CLOSE
Current Station
Airport
Location: Sioux Falls,
Elevation: 1427 ft
Nearby Weather Stations

Elev 1427 ft 43.58 °N, 96.75 °W | Updated 33 minutes ago

Rain
Rain
51 °F
Feels Like 51 °F
N
5
Wind Variable Wind from NNE

Today
High -- | Low -- °F
--% Chance of Precip.
Yesterday
High -- | Low -- °F
Precip. -- in
7:05 AM 7:38 PM
Waning Gibbous, 59% visible
Pressure 30.17 in
Visibility 10.0 miles
Clouds Few 4200 ft
Overcast 6000 ft
Dew Point 45 °F
Humidity 80%
Rainfall 0.01 in
Snow Depth Not available.
UV 0 out of 12
Pollen 4.10 out of 12
Air Quality Not available.
Flu Activity Not available.
METAR KFSD 150356Z 02004KT 10SM -RA FEW042 OVC060 11/07 A3015 RMK AO2 RAB20 SLP214 P0001 T01060072

More Conditions Fewer Conditions

Pressure 30.17 in
Visibility 10.0 miles
Clouds Few 4200 ft
Overcast 6000 ft
Dew Point 45 °F
Humidity 80%
Rainfall 0.01 in
Snow Depth Not available.
UV 0 out of 12
Pollen 4.10 out of 12
Air Quality Not available.
Flu Activity Not available.
METAR KFSD 150356Z 02004KT 10SM -RA FEW042 OVC060 11/07 A3015 RMK AO2 RAB20 SLP214 P0001 T01060072

More Conditions Fewer Conditions

10-Day Weather Forecast

Almanac

Astronomy

Sep. 14, 2014 Rise Set
Actual Time 7:05 AM CDT 7:38 PM CDT
Civil Twilight 6:36 AM CDT 8:07 PM CDT
Nautical Twilight 6:02 AM CDT 8:41 PM CDT
Astronomical Twilight 5:27 AM CDT 9:16 PM CDT
Moon 11:21 PM CDT (9/14) 1:22 PM CDT (9/14)
Length of Visible Light 13h 31m
Length of Day
12h 33m
Tomorrow will be 2m 56s shorter.
Waning Gibbous, 59% of the Moon is Illuminated
Sep 15
Waning Gibbous
Sep 15
Last Quarter
Sep 24
New
Oct 1
First Quarter
Oct 8
Full

Today's Extremes

State Highs State Lows

Community

WunderPhotos

Upload Photos

1,753,400 photos uploaded!

Nearby

Snow Depth

Station Depth Elevation
Blind Park 0 in 6890 ft

Earthquake Activity

City Distance Mag. Time & Date
No recent earthquake activity has been reported nearby.
Minimum magnitude displayed is 2.5.

Coastal Water Temperatures

Place Temperature
No Stations Reporting

Nearby Weather Stations